createdAt,value
2022-10-30T00:00:53.681Z,92.46
2022-10-30T00:03:20.480Z,91.63
2022-10-30T00:05:49.661Z,92.06
2022-10-30T00:08:19.131Z,92.96
2022-10-30T00:10:46.635Z,92.50
2022-10-30T00:13:14.055Z,92.74
2022-10-30T00:15:46.225Z,91.77
2022-10-30T00:18:12.751Z,92.43
2022-10-30T00:20:39.244Z,92.45
2022-10-30T00:23:05.940Z,93.12
2022-10-30T00:25:34.351Z,94.99
2022-10-30T00:28:00.845Z,95.30
2022-10-30T00:30:27.337Z,94.90
2022-10-30T00:32:53.867Z,94.28
2022-10-30T00:35:21.744Z,94.24
2022-10-30T00:37:48.215Z,95.53
2022-10-30T00:40:16.357Z,95.27
2022-10-30T00:42:43.670Z,94.61
2022-10-30T00:45:14.876Z,94.65
2022-10-30T00:47:51.546Z,93.99
2022-10-30T00:53:08.739Z,95.65
2022-10-30T00:55:39.748Z,95.49
2022-10-30T00:58:10.473Z,94.02
2022-10-30T01:00:40.635Z,94.32
2022-10-30T01:03:07.407Z,96.12
2022-10-30T01:05:35.401Z,97.46
2022-10-30T01:08:02.348Z,96.48
2022-10-30T01:10:29.138Z,96.01
2022-10-30T01:12:58.544Z,95.66
2022-10-30T01:15:31.563Z,94.78
2022-10-30T01:18:21.058Z,95.69
2022-10-30T01:21:28.055Z,96.60
2022-10-30T01:24:25.510Z,97.22
2022-10-30T01:27:42.044Z,97.50
2022-10-30T01:30:08.504Z,98.45
2022-10-30T01:32:50.010Z,97.81
2022-10-30T01:36:07.423Z,97.81
2022-10-30T01:39:04.260Z,97.73
2022-10-30T01:41:30.838Z,96.42
2022-10-30T01:44:01.941Z,97.44
2022-10-30T01:46:44.907Z,97.59
2022-10-30T01:49:35.432Z,98.04
2022-10-30T01:52:23.825Z,99.10
2022-10-30T01:55:05.462Z,99.20
2022-10-30T01:57:42.380Z,99.02
2022-10-30T02:00:16.042Z,98.66
2022-10-30T02:02:43.586Z,98.74
2022-10-30T02:05:14.914Z,97.54
2022-10-30T02:07:41.409Z,97.55
2022-10-30T02:10:08.361Z,98.83
2022-10-30T02:12:34.931Z,98.83
2022-10-30T02:15:01.912Z,99.32
2022-10-30T02:17:28.477Z,99.38
2022-10-30T02:19:55.393Z,99.44
2022-10-30T02:22:22.246Z,98.84
2022-10-30T02:24:48.942Z,99.85
2022-10-30T02:27:15.535Z,99.64
2022-10-30T02:29:42.070Z,98.27
2022-10-30T02:32:08.589Z,99.83
2022-10-30T02:34:35.156Z,99.35
2022-10-30T02:37:01.826Z,99.08
2022-10-30T02:39:28.375Z,99.02
2022-10-30T02:41:54.987Z,99.34
2022-10-30T02:44:21.574Z,100.00
2022-10-30T02:46:48.059Z,100.00
2022-10-30T02:49:14.584Z,100.00
2022-10-30T02:51:41.130Z,99.69
2022-10-30T02:54:07.716Z,99.43
2022-10-30T02:56:34.268Z,98.30
2022-10-30T02:59:01.001Z,97.70
2022-10-30T03:01:27.617Z,98.35
2022-10-30T03:03:54.271Z,98.04
2022-10-30T03:06:20.934Z,97.65
2022-10-30T03:08:47.526Z,97.65
2022-10-30T03:11:19.639Z,98.79
2022-10-30T03:13:47.573Z,98.81
2022-10-30T03:16:22.974Z,98.71
2022-10-30T03:18:50.967Z,99.40
2022-10-30T03:21:20.268Z,99.51
2022-10-30T03:23:47.005Z,99.27
2022-10-30T03:26:13.737Z,100.00
2022-10-30T03:28:40.247Z,99.56
2022-10-30T03:31:09.806Z,98.55
2022-10-30T03:33:37.697Z,100.00
2022-10-30T03:36:06.650Z,99.19
2022-10-30T03:38:33.462Z,99.56
2022-10-30T03:41:00.327Z,100.00
2022-10-30T03:43:27.178Z,99.69
2022-10-30T03:45:55.563Z,98.75
2022-10-30T03:48:24.925Z,98.34
2022-10-30T03:51:00.592Z,98.90
2022-10-30T03:53:28.622Z,100.00
2022-10-30T03:56:01.299Z,100.00
2022-10-30T03:58:29.143Z,100.00
2022-10-30T04:01:01.665Z,100.00
2022-10-30T04:03:28.324Z,100.00
2022-10-30T04:05:54.922Z,100.00
2022-10-30T04:08:22.018Z,100.00
2022-10-30T04:10:48.658Z,100.00
2022-10-30T04:13:17.120Z,100.00
2022-10-30T04:15:43.747Z,100.00
2022-10-30T04:18:13.742Z,100.00
2022-10-30T04:20:40.695Z,100.00
2022-10-30T04:23:09.146Z,100.00
2022-10-30T04:25:36.084Z,100.00
2022-10-30T04:28:03.292Z,100.00
2022-10-30T04:30:34.078Z,100.00
2022-10-30T04:33:02.934Z,100.00
2022-10-30T04:35:32.323Z,100.00
2022-10-30T04:38:03.787Z,100.00
2022-10-30T04:40:33.495Z,100.00
2022-10-30T04:43:01.003Z,100.00
2022-10-30T04:45:27.782Z,100.00
2022-10-30T04:48:01.248Z,100.00
2022-10-30T04:50:28.070Z,100.00
2022-10-30T04:53:11.887Z,100.00
2022-10-30T04:55:38.591Z,100.00
2022-10-30T04:58:05.141Z,100.00
2022-10-30T05:00:32.354Z,100.00
2022-10-30T05:03:01.018Z,100.00
2022-10-30T05:05:29.067Z,100.00
2022-10-30T05:07:56.063Z,100.00
2022-10-30T05:10:23.461Z,100.00
2022-10-30T05:12:52.680Z,100.00
2022-10-30T05:15:19.343Z,100.00
2022-10-30T05:17:45.899Z,100.00
2022-10-30T05:20:14.876Z,100.00
2022-10-30T05:22:45.210Z,100.00
2022-10-30T05:25:11.773Z,100.00
2022-10-30T05:27:38.241Z,100.00
2022-10-30T05:30:05.154Z,100.00
2022-10-30T05:32:31.655Z,100.00
2022-10-30T05:34:58.203Z,100.00
2022-10-30T05:37:25.053Z,100.00
2022-10-30T05:39:51.715Z,100.00
2022-10-30T05:42:18.212Z,100.00
2022-10-30T05:45:00.292Z,100.00
2022-10-30T05:47:27.733Z,100.00
2022-10-30T05:49:54.260Z,100.00
2022-10-30T05:52:20.794Z,100.00
2022-10-30T05:54:47.449Z,100.00
2022-10-30T05:57:14.007Z,100.00
2022-10-30T05:59:40.569Z,100.00
2022-10-30T06:02:07.152Z,100.00
2022-10-30T06:04:33.821Z,100.00
2022-10-30T06:07:00.333Z,100.00
2022-10-30T06:09:26.881Z,100.00
2022-10-30T06:11:53.997Z,100.00
2022-10-30T06:14:20.520Z,100.00
2022-10-30T06:16:47.686Z,100.00
2022-10-30T06:19:17.549Z,100.00
2022-10-30T06:21:45.947Z,100.00
2022-10-30T06:24:12.723Z,100.00
2022-10-30T06:26:39.542Z,100.00
2022-10-30T06:29:06.104Z,100.00
2022-10-30T06:31:32.767Z,100.00
2022-10-30T06:33:59.481Z,100.00
2022-10-30T06:36:26.124Z,96.85
2022-10-30T06:38:52.824Z,94.21
2022-10-30T06:41:19.423Z,92.37
2022-10-30T06:43:46.013Z,90.74
2022-10-30T06:46:12.620Z,88.05
2022-10-30T06:48:39.199Z,85.29
2022-10-30T06:51:06.136Z,84.91
2022-10-30T06:53:32.710Z,83.52
2022-10-30T06:56:01.762Z,82.09
2022-10-30T06:58:29.825Z,80.83
2022-10-30T07:00:59.266Z,80.12
2022-10-30T07:03:25.803Z,78.96
2022-10-30T07:05:52.773Z,78.58
2022-10-30T07:08:19.361Z,77.60
2022-10-30T07:10:45.882Z,75.06
2022-10-30T07:13:12.527Z,74.07
2022-10-30T07:15:39.352Z,70.09
2022-10-30T07:18:06.489Z,75.30
2022-10-30T07:20:34.454Z,76.27
2022-10-30T07:23:01.700Z,75.38
2022-10-30T07:25:28.592Z,76.12
2022-10-30T07:27:57.087Z,73.01
2022-10-30T07:33:02.811Z,65.95
2022-10-30T07:35:30.922Z,70.99
2022-10-30T07:38:05.564Z,62.85
2022-10-30T07:40:33.113Z,67.89
2022-10-30T07:43:01.918Z,73.11
2022-10-30T07:45:29.270Z,73.56
2022-10-30T07:47:56.725Z,72.78
2022-10-30T07:50:24.557Z,65.49
2022-10-30T07:52:51.121Z,67.90
2022-10-30T07:55:18.063Z,62.52
2022-10-30T07:57:44.646Z,65.19
2022-10-30T08:00:13.907Z,68.10
2022-10-30T08:02:40.936Z,69.72
2022-10-30T08:05:08.290Z,63.83
2022-10-30T08:07:37.757Z,58.49
2022-10-30T08:10:06.145Z,67.01
2022-10-30T08:12:32.854Z,57.12
2022-10-30T08:14:59.421Z,54.13
2022-10-30T08:17:26.017Z,57.43
2022-10-30T08:19:52.715Z,64.75
2022-10-30T08:22:19.272Z,65.56
2022-10-30T08:24:45.912Z,67.91
2022-10-30T08:27:12.436Z,53.86
2022-10-30T08:29:39.093Z,67.51
2022-10-30T08:32:05.829Z,51.62
2022-10-30T08:34:34.583Z,61.17
2022-10-30T08:37:01.295Z,66.81
2022-10-30T08:39:27.857Z,63.61
2022-10-30T08:41:56.796Z,65.83
2022-10-30T08:44:23.340Z,62.83
2022-10-30T08:46:49.848Z,65.58
2022-10-30T08:49:16.427Z,63.12
2022-10-30T08:51:43.058Z,51.94
2022-10-30T08:54:10.997Z,56.61
2022-10-30T08:56:37.566Z,64.13
2022-10-30T08:59:04.088Z,52.20
2022-10-30T09:01:30.676Z,64.58
2022-10-30T09:03:57.376Z,64.60
2022-10-30T09:06:23.993Z,61.50
2022-10-30T09:08:50.583Z,54.19
2022-10-30T09:11:17.524Z,63.69
2022-10-30T09:13:44.175Z,60.99
2022-10-30T09:16:10.800Z,57.66
2022-10-30T09:18:37.435Z,49.48
2022-10-30T09:21:05.159Z,61.42
2022-10-30T09:23:32.193Z,46.87
2022-10-30T09:25:58.840Z,54.75
2022-10-30T09:28:25.364Z,53.35
2022-10-30T09:30:56.375Z,60.12
2022-10-30T09:33:23.419Z,60.61
2022-10-30T09:35:50.189Z,55.81
2022-10-30T09:38:16.789Z,59.02
2022-10-30T09:40:46.362Z,51.95
2022-10-30T09:43:50.739Z,47.41
2022-10-30T09:46:49.725Z,54.34
2022-10-30T09:49:38.283Z,55.78
2022-10-30T09:52:23.427Z,48.57
2022-10-30T09:55:05.141Z,52.63
2022-10-30T09:57:46.587Z,53.98
2022-10-30T10:00:19.577Z,56.37
2022-10-30T10:03:13.904Z,51.68
2022-10-30T10:05:51.235Z,46.10
2022-10-30T10:08:47.739Z,47.95
2022-10-30T10:11:23.118Z,51.64
2022-10-30T10:13:58.980Z,51.22
2022-10-30T10:16:33.581Z,50.64
2022-10-30T10:19:15.743Z,48.20
2022-10-30T10:21:47.661Z,47.28
2022-10-30T10:24:22.499Z,45.92
2022-10-30T10:27:14.835Z,49.40
2022-10-30T10:30:01.699Z,48.37
2022-10-30T10:32:28.541Z,48.10
2022-10-30T10:35:32.772Z,46.40
2022-10-30T10:38:12.940Z,47.77
2022-10-30T10:40:52.709Z,50.61
2022-10-30T10:43:40.472Z,47.64
2022-10-30T10:46:06.977Z,48.77
2022-10-30T10:48:39.960Z,50.28
2022-10-30T10:51:32.857Z,48.23
2022-10-30T10:54:10.715Z,47.76
2022-10-30T10:56:43.178Z,47.90
2022-10-30T10:59:23.157Z,50.24
2022-10-30T11:02:08.673Z,50.28
2022-10-30T11:04:43.469Z,49.50
2022-10-30T11:07:23.581Z,50.19
2022-10-30T11:09:55.463Z,49.62
2022-10-30T11:12:33.845Z,51.00
2022-10-30T11:15:16.073Z,50.13
2022-10-30T11:17:51.650Z,49.62
2022-10-30T11:20:25.514Z,47.72
2022-10-30T11:22:52.102Z,50.09
2022-10-30T11:25:28.603Z,48.73
2022-10-30T11:27:59.670Z,48.64
2022-10-30T11:30:28.935Z,49.54
2022-10-30T11:32:57.234Z,47.74
2022-10-30T11:35:25.112Z,49.19
2022-10-30T11:38:13.135Z,47.81
2022-10-30T11:40:41.397Z,47.42
2022-10-30T11:43:12.972Z,49.63
2022-10-30T11:45:43.581Z,47.79
2022-10-30T11:48:40.479Z,46.94
2022-10-30T11:51:07.101Z,49.43
2022-10-30T11:53:42.825Z,48.73
2022-10-30T11:56:19.239Z,47.35
2022-10-30T11:58:51.012Z,46.46
2022-10-30T12:01:25.756Z,47.82
2022-10-30T12:03:54.222Z,47.96
2022-10-30T12:06:24.792Z,48.14
2022-10-30T12:09:10.085Z,46.70
2022-10-30T12:11:37.923Z,48.26
2022-10-30T12:14:05.129Z,48.03
2022-10-30T12:16:32.957Z,48.15
2022-10-30T12:19:15.173Z,47.12
2022-10-30T12:21:47.029Z,47.00
2022-10-30T12:24:38.980Z,45.94
2022-10-30T12:27:18.172Z,47.77
2022-10-30T12:30:17.172Z,47.36
2022-10-30T12:32:57.471Z,49.00
2022-10-30T12:35:51.176Z,48.66
2022-10-30T12:38:38.005Z,49.06
2022-10-30T12:41:34.358Z,47.36
2022-10-30T12:44:14.313Z,49.04
2022-10-30T12:47:06.523Z,49.08
2022-10-30T12:49:51.901Z,47.33
2022-10-30T12:52:21.458Z,47.22
2022-10-30T12:55:16.268Z,47.63
2022-10-30T12:58:21.347Z,48.91
2022-10-30T13:00:58.077Z,49.35
2022-10-30T13:03:46.619Z,46.93
2022-10-30T13:06:21.010Z,49.25
2022-10-30T13:09:04.267Z,47.57
2022-10-30T13:11:39.809Z,49.34
2022-10-30T13:14:14.576Z,48.45
2022-10-30T13:16:41.286Z,48.67
2022-10-30T13:19:11.482Z,48.97
2022-10-30T13:21:48.963Z,47.29
2022-10-30T13:24:48.867Z,45.05
2022-10-30T13:27:42.636Z,45.71
2022-10-30T13:30:22.498Z,47.24
2022-10-30T13:32:49.028Z,45.50
2022-10-30T13:35:31.886Z,45.42
2022-10-30T13:38:03.776Z,48.39
2022-10-30T13:40:44.594Z,46.95
2022-10-30T13:43:42.904Z,48.13
2022-10-30T13:46:40.865Z,46.56
2022-10-30T13:49:25.629Z,46.32
2022-10-30T13:52:04.717Z,46.89
2022-10-30T13:54:46.784Z,47.38
2022-10-30T13:57:22.153Z,45.32
2022-10-30T14:00:06.649Z,45.04
2022-10-30T14:02:39.223Z,48.27
2022-10-30T14:05:29.204Z,44.60
2022-10-30T14:08:21.772Z,47.16
2022-10-30T14:11:00.406Z,47.57
2022-10-30T14:13:27.562Z,46.43
2022-10-30T14:16:01.175Z,45.93
2022-10-30T14:18:29.041Z,45.95
2022-10-30T14:21:19.849Z,47.68
2022-10-30T14:23:46.615Z,47.30
2022-10-30T14:26:14.371Z,47.24
2022-10-30T14:28:47.192Z,47.89
2022-10-30T14:31:16.760Z,47.44
2022-10-30T14:33:54.722Z,46.33
2022-10-30T14:36:41.468Z,48.10
2022-10-30T14:39:11.043Z,48.55
2022-10-30T14:41:52.633Z,48.34
2022-10-30T14:44:50.567Z,47.54
2022-10-30T14:47:39.793Z,47.58
2022-10-30T14:50:27.710Z,47.96
2022-10-30T14:53:19.043Z,48.48
2022-10-30T14:55:57.568Z,47.88
2022-10-30T14:58:26.871Z,48.52
2022-10-30T15:01:25.721Z,48.66
2022-10-30T15:04:01.095Z,49.23
2022-10-30T15:06:56.253Z,48.65
2022-10-30T15:09:53.690Z,48.91
2022-10-30T15:12:58.202Z,49.94
2022-10-30T15:15:28.053Z,50.20
2022-10-30T15:17:59.262Z,50.23
2022-10-30T15:20:31.562Z,50.45
2022-10-30T15:23:22.802Z,50.49
2022-10-30T15:26:08.944Z,51.00
2022-10-30T15:28:38.143Z,51.18
2022-10-30T15:31:24.597Z,51.74
2022-10-30T15:33:54.205Z,51.59
2022-10-30T15:36:25.322Z,52.28
2022-10-30T15:39:11.752Z,52.84
2022-10-30T15:41:57.246Z,52.77
2022-10-30T15:44:33.306Z,53.46
2022-10-30T15:47:02.211Z,53.34
2022-10-30T15:49:30.854Z,53.00
2022-10-30T15:51:58.852Z,53.12
2022-10-30T15:54:27.237Z,53.08
2022-10-30T15:57:31.200Z,55.01
2022-10-30T15:59:51.721Z,54.64
2022-10-30T16:02:23.935Z,54.63
2022-10-30T16:04:50.715Z,55.57
2022-10-30T16:07:29.045Z,56.62
2022-10-30T16:09:55.443Z,59.78
2022-10-30T16:12:31.422Z,57.95
2022-10-30T16:15:02.300Z,56.89
2022-10-30T16:17:28.908Z,57.10
2022-10-30T16:20:01.130Z,59.33
2022-10-30T16:22:35.722Z,60.35
2022-10-30T16:25:10.011Z,59.06
2022-10-30T16:27:43.965Z,60.75
2022-10-30T16:30:14.056Z,61.85
2022-10-30T16:32:41.484Z,61.79
2022-10-30T16:35:11.029Z,60.66
2022-10-30T16:37:41.206Z,62.83
2022-10-30T16:40:15.843Z,63.16
2022-10-30T16:42:50.283Z,66.77
2022-10-30T16:45:19.842Z,66.18
2022-10-30T16:47:58.351Z,65.56
2022-10-30T16:50:37.101Z,66.08
2022-10-30T16:53:11.306Z,66.27
2022-10-30T16:55:40.665Z,68.87
2022-10-30T16:58:07.326Z,69.53
2022-10-30T17:00:36.535Z,71.48
2022-10-30T17:03:11.965Z,69.43
2022-10-30T17:05:40.282Z,72.93
2022-10-30T17:08:33.256Z,72.54
2022-10-30T17:11:02.580Z,69.76
2022-10-30T17:13:34.845Z,70.99
2022-10-30T17:16:27.518Z,69.96
2022-10-30T17:18:57.166Z,70.53
2022-10-30T17:21:46.009Z,69.68
2022-10-30T17:24:22.089Z,72.89
2022-10-30T17:26:56.905Z,74.46
2022-10-30T17:29:38.523Z,74.94
2022-10-30T17:32:15.993Z,72.44
2022-10-30T17:34:42.508Z,70.60
2022-10-30T17:37:09.045Z,71.35
2022-10-30T17:39:35.561Z,71.33
2022-10-30T17:42:02.620Z,71.75
2022-10-30T17:44:33.156Z,71.42
2022-10-30T17:47:01.141Z,73.89
2022-10-30T17:49:31.784Z,73.95
2022-10-30T17:51:59.074Z,74.31
2022-10-30T17:54:25.666Z,74.09
2022-10-30T17:56:52.749Z,74.04
2022-10-30T17:59:19.644Z,75.46
2022-10-30T18:01:47.008Z,75.04
2022-10-30T18:04:20.788Z,73.75
2022-10-30T18:06:48.691Z,75.51
2022-10-30T18:09:15.625Z,76.19
2022-10-30T18:11:42.375Z,76.84
2022-10-30T18:14:12.362Z,76.50
2022-10-30T18:16:39.032Z,77.94
2022-10-30T18:19:10.531Z,76.44
2022-10-30T18:21:37.507Z,78.01
2022-10-30T18:24:10.436Z,78.13
2022-10-30T18:26:40.530Z,78.85
2022-10-30T18:29:08.218Z,80.21
2022-10-30T18:31:34.951Z,79.70
2022-10-30T18:34:01.507Z,81.57
2022-10-30T18:36:28.061Z,80.79
2022-10-30T18:38:56.047Z,81.31
2022-10-30T18:41:24.836Z,79.38
2022-10-30T18:43:52.497Z,80.44
2022-10-30T18:46:18.997Z,80.83
2022-10-30T18:48:45.685Z,82.07
2022-10-30T18:51:38.773Z,83.00
2022-10-30T18:54:13.789Z,83.49
2022-10-30T18:56:40.358Z,78.77
2022-10-30T18:59:06.920Z,82.67
2022-10-30T19:01:33.792Z,82.36
2022-10-30T19:04:04.435Z,82.49
2022-10-30T19:06:34.198Z,81.46
2022-10-30T19:09:01.154Z,80.23
2022-10-30T19:11:30.807Z,80.98
2022-10-30T19:13:57.876Z,80.87
2022-10-30T19:16:25.588Z,81.48
2022-10-30T19:18:52.698Z,82.42
2022-10-30T19:21:25.705Z,80.56
2022-10-30T19:23:53.900Z,81.39
2022-10-30T19:26:20.561Z,81.17
2022-10-30T19:28:47.132Z,81.84
2022-10-30T19:31:15.766Z,81.68
2022-10-30T19:33:42.787Z,82.92
2022-10-30T19:36:36.270Z,83.25
2022-10-30T19:39:14.124Z,83.68
2022-10-30T19:41:41.614Z,84.05
2022-10-30T19:44:08.813Z,85.19
2022-10-30T19:46:36.680Z,85.31
2022-10-30T19:49:16.693Z,84.98
2022-10-30T19:51:43.495Z,85.96
2022-10-30T19:54:10.013Z,84.88
2022-10-30T19:56:36.607Z,85.63
2022-10-30T19:59:03.618Z,84.15
2022-10-30T20:01:30.257Z,84.56
2022-10-30T20:03:56.974Z,84.09
2022-10-30T20:06:23.683Z,84.42
2022-10-30T20:08:50.241Z,83.42
2022-10-30T20:11:16.913Z,83.89
2022-10-30T20:13:43.637Z,84.79
2022-10-30T20:16:10.815Z,86.04
2022-10-30T20:18:37.769Z,86.74
2022-10-30T20:21:09.927Z,86.20
2022-10-30T20:23:36.962Z,86.50
2022-10-30T20:26:12.068Z,86.27
2022-10-30T20:28:41.660Z,87.00
2022-10-30T20:31:10.968Z,87.34
2022-10-30T20:33:37.870Z,87.46
2022-10-30T20:36:04.809Z,87.54
2022-10-30T20:38:33.473Z,87.89
2022-10-30T20:41:01.663Z,88.68
2022-10-30T20:43:38.805Z,88.77
2022-10-30T20:46:09.277Z,87.55
2022-10-30T20:48:36.249Z,89.09
2022-10-30T20:51:03.314Z,87.29
2022-10-30T20:53:30.305Z,87.38
2022-10-30T20:55:57.071Z,88.84
2022-10-30T20:58:24.022Z,88.57
2022-10-30T21:00:50.744Z,88.34
2022-10-30T21:03:17.584Z,88.12
2022-10-30T21:05:46.269Z,88.02
2022-10-30T21:08:15.953Z,89.81
2022-10-30T21:10:42.881Z,88.79
2022-10-30T21:13:11.033Z,88.30
2022-10-30T21:15:40.165Z,88.11
2022-10-30T21:18:07.190Z,87.86
2022-10-30T21:20:33.904Z,87.42
2022-10-30T21:23:00.774Z,87.23
2022-10-30T21:25:27.588Z,87.03
2022-10-30T21:27:56.749Z,87.05
2022-10-30T21:30:23.726Z,87.55
2022-10-30T21:32:50.706Z,87.95
2022-10-30T21:35:17.772Z,88.65
2022-10-30T21:37:44.818Z,89.02
2022-10-30T21:40:12.083Z,88.46
2022-10-30T21:42:38.841Z,89.26
2022-10-30T21:45:06.298Z,89.87
2022-10-30T21:47:32.813Z,90.01
2022-10-30T21:49:59.363Z,91.00
2022-10-30T21:52:26.822Z,91.55
2022-10-30T21:54:53.330Z,91.37
2022-10-30T21:57:19.856Z,91.47
2022-10-30T21:59:46.494Z,91.04
2022-10-30T22:02:16.162Z,90.35
2022-10-30T22:04:42.734Z,91.58
2022-10-30T22:07:09.260Z,89.65
2022-10-30T22:09:35.981Z,89.57
2022-10-30T22:12:02.553Z,88.68
2022-10-30T22:14:29.392Z,88.86
2022-10-30T22:16:56.293Z,88.84
2022-10-30T22:19:22.807Z,88.08
2022-10-30T22:21:49.389Z,88.44
2022-10-30T22:24:17.272Z,87.81
2022-10-30T22:26:43.839Z,87.37
2022-10-30T22:29:11.466Z,87.21
2022-10-30T22:31:37.992Z,87.39
2022-10-30T22:34:04.977Z,87.72
2022-10-30T22:36:33.346Z,88.24
2022-10-30T22:39:07.434Z,88.47
2022-10-30T22:41:37.577Z,89.10
2022-10-30T22:44:11.547Z,89.43
2022-10-30T22:46:38.635Z,90.07
2022-10-30T22:49:05.637Z,92.34
2022-10-30T22:51:34.713Z,93.38
2022-10-30T22:54:03.183Z,89.96
2022-10-30T22:56:32.788Z,90.55
2022-10-30T22:59:10.151Z,92.74
2022-10-30T23:01:38.353Z,90.78
2022-10-30T23:04:06.379Z,91.39
2022-10-30T23:06:34.420Z,91.05
2022-10-30T23:09:04.560Z,91.22
2022-10-30T23:11:31.506Z,92.58
2022-10-30T23:13:58.375Z,92.00
2022-10-30T23:16:26.294Z,93.12
2022-10-30T23:18:55.442Z,95.05
2022-10-30T23:21:25.153Z,95.66
2022-10-30T23:23:52.382Z,95.80
2022-10-30T23:26:30.317Z,95.33
2022-10-30T23:28:58.355Z,94.58
2022-10-30T23:31:37.314Z,93.96
2022-10-30T23:34:09.643Z,93.53
2022-10-30T23:36:37.328Z,94.55
2022-10-30T23:39:09.378Z,93.91
2022-10-30T23:41:36.025Z,94.58
2022-10-30T23:44:10.467Z,95.00
2022-10-30T23:46:37.351Z,95.49
2022-10-30T23:49:05.052Z,94.72
2022-10-30T23:51:31.819Z,95.96
2022-10-30T23:53:58.529Z,95.28
2022-10-30T23:56:25.341Z,97.36
2022-10-30T23:58:53.007Z,94.40
